Roanoke, VA (24033)

2:36 PM EST on December 09, 2016 (GMT -0500)
East Gate | | Change Station

Elev 1033 ft 37.29 °N, 79.92 °W | Updated 20 seconds ago

Partly Cloudy
Partly Cloudy
34.3 °F
Feels Like 29 °F
N
6.0
Wind Variable Wind from NNW
Gusts 6.0 mph

Today
High -- | Low -- °F
--% Chance of Precip.
Yesterday
High -- | Low -- °F
Precip. -- in
Pressure 30.42 in
Visibility 10.0 miles
Clouds Few 4800 ft
Windchill 29 °F
Dew Point 15 °F
Humidity 45%
Rainfall 0.00 in
Snow Depth Not available.
7:22 AM 5:02 PM
Waxing Gibbous, 76% visible
METAR KROA 091854Z 29011KT 10SM FEW048 01/M12 A3039 RMK AO2 SLP300 T00061117
Pressure 30.42 in
Visibility 10.0 miles
Clouds Few 4800 ft
Windchill 29 °F
Dew Point 15 °F
Humidity 45%
Rainfall 0.00 in
Snow Depth Not available.
7:22 AM 5:02 PM
Waxing Gibbous, 76% visible
METAR KROA 091854Z 29011KT 10SM FEW048 01/M12 A3039 RMK AO2 SLP300 T00061117

10-Day Weather Forecast

Almanac

Astronomy

Dec. 09, 2016 Rise Set
Actual Time
Civil Twilight
Nautical Twilight
Astronomical Twilight
Moon
Length of Visible Light
Length of Day
Tomorrow will be .
, % of the Moon is Illuminated

Today's Extremes

State Highs State Lows

Community

WunderPhotos

Upload Photos

1,956,499 photos uploaded!

WunderBlog® & News

Nearby

Air Quality

  Air Quality AQ Index Pollutant
Not available.

Snow Depth

Station Depth Elevation

Earthquake Activity

City Distance Mag. Time & Date
Minimum magnitude displayed is 2.5.

Coastal Water Temperatures

Place Temperature

Stations

Nearby Weather Stations

Station Location Temp. Windchill Dew Point Humidity Wind Precip. Elev Updated Type
                   

Watches & Warnings

There are currently no watches in effect.